sensor_id;sensor_type;location;lat;lon;timestamp;temperature;humidity
37242;DHT22;23135;51.078;12.108;2023-02-11T00:00:04;1.50;99.90
37242;DHT22;23135;51.078;12.108;2023-02-11T00:02:31;1.50;99.90
37242;DHT22;23135;51.078;12.108;2023-02-11T00:04:57;1.50;99.90
37242;DHT22;23135;51.078;12.108;2023-02-11T00:07:23;1.50;99.90
37242;DHT22;23135;51.078;12.108;2023-02-11T00:09:49;1.50;99.90
37242;DHT22;23135;51.078;12.108;2023-02-11T00:12:15;1.60;99.90
37242;DHT22;23135;51.078;12.108;2023-02-11T00:14:43;1.60;99.90
37242;DHT22;23135;51.078;12.108;2023-02-11T00:17:09;1.60;99.90
37242;DHT22;23135;51.078;12.108;2023-02-11T00:19:34;1.60;99.90
37242;DHT22;23135;51.078;12.108;2023-02-11T00:22:00;1.70;99.90
37242;DHT22;23135;51.078;12.108;2023-02-11T00:24:26;1.70;99.90
37242;DHT22;23135;51.078;12.108;2023-02-11T00:26:51;1.70;99.90
37242;DHT22;23135;51.078;12.108;2023-02-11T00:29:17;1.70;99.90
37242;DHT22;23135;51.078;12.108;2023-02-11T00:31:42;1.80;99.90
37242;DHT22;23135;51.078;12.108;2023-02-11T00:34:08;1.80;99.90
37242;DHT22;23135;51.078;12.108;2023-02-11T00:36:33;1.80;99.90
37242;DHT22;23135;51.078;12.108;2023-02-11T00:38:59;1.70;99.90
37242;DHT22;23135;51.078;12.108;2023-02-11T00:41:25;1.70;99.90
37242;DHT22;23135;51.078;12.108;2023-02-11T00:43:51;1.70;99.90
37242;DHT22;23135;51.078;12.108;2023-02-11T00:46:16;1.70;99.90
37242;DHT22;23135;51.078;12.108;2023-02-11T00:48:42;1.70;99.90
37242;DHT22;23135;51.078;12.108;2023-02-11T00:51:08;1.70;99.90
37242;DHT22;23135;51.078;12.108;2023-02-11T00:53:35;1.80;99.90
37242;DHT22;23135;51.078;12.108;2023-02-11T00:56:00;1.80;99.90
37242;DHT22;23135;51.078;12.108;2023-02-11T00:58:27;1.70;99.90
37242;DHT22;23135;51.078;12.108;2023-02-11T01:00:53;1.80;99.90
37242;DHT22;23135;51.078;12.108;2023-02-11T01:03:19;1.80;99.90
37242;DHT22;23135;51.078;12.108;2023-02-11T01:05:44;1.80;99.90
37242;DHT22;23135;51.078;12.108;2023-02-11T01:08:10;1.80;99.90
37242;DHT22;23135;51.078;12.108;2023-02-11T01:10:36;1.80;99.90
37242;DHT22;23135;51.078;12.108;2023-02-11T01:13:01;1.80;99.90
37242;DHT22;23135;51.078;12.108;2023-02-11T01:15:27;1.80;99.90
37242;DHT22;23135;51.078;12.108;2023-02-11T01:17:53;1.80;99.90
37242;DHT22;23135;51.078;12.108;2023-02-11T01:20:23;1.80;99.90
37242;DHT22;23135;51.078;12.108;2023-02-11T01:22:48;1.80;99.90
37242;DHT22;23135;51.078;12.108;2023-02-11T01:25:14;1.80;99.90
37242;DHT22;23135;51.078;12.108;2023-02-11T01:27:40;1.90;99.90
37242;DHT22;23135;51.078;12.108;2023-02-11T01:30:07;1.90;99.90
37242;DHT22;23135;51.078;12.108;2023-02-11T01:32:33;1.90;99.90
37242;DHT22;23135;51.078;12.108;2023-02-11T01:34:59;1.90;99.90
37242;DHT22;23135;51.078;12.108;2023-02-11T01:37:25;1.90;99.90
37242;DHT22;23135;51.078;12.108;2023-02-11T01:39:51;1.90;99.90
37242;DHT22;23135;51.078;12.108;2023-02-11T01:42:18;1.90;99.90
37242;DHT22;23135;51.078;12.108;2023-02-11T01:44:45;1.90;99.90
37242;DHT22;23135;51.078;12.108;2023-02-11T01:47:13;1.80;99.90
37242;DHT22;23135;51.078;12.108;2023-02-11T01:49:45;1.90;99.90
37242;DHT22;23135;51.078;12.108;2023-02-11T01:54:50;2.10;99.90
37242;DHT22;23135;51.078;12.108;2023-02-11T01:57:38;2.10;99.90
37242;DHT22;23135;51.078;12.108;2023-02-11T02:08:20;2.00;99.90
37242;DHT22;23135;51.078;12.108;2023-02-11T02:10:49;2.00;99.90
37242;DHT22;23135;51.078;12.108;2023-02-11T02:13:18;2.00;99.90
37242;DHT22;23135;51.078;12.108;2023-02-11T02:15:54;2.00;99.90
37242;DHT22;23135;51.078;12.108;2023-02-11T02:27:07;2.00;99.90
37242;DHT22;23135;51.078;12.108;2023-02-11T02:32:55;2.00;99.90
37242;DHT22;23135;51.078;12.108;2023-02-11T02:35:40;2.00;99.90
37242;DHT22;23135;51.078;12.108;2023-02-11T02:38:12;2.00;99.90
37242;DHT22;23135;51.078;12.108;2023-02-11T02:40:42;2.10;99.90
37242;DHT22;23135;51.078;12.108;2023-02-11T02:43:10;2.20;99.90
37242;DHT22;23135;51.078;12.108;2023-02-11T02:45:37;2.20;99.90
37242;DHT22;23135;51.078;12.108;2023-02-11T02:48:03;2.30;99.90
37242;DHT22;23135;51.078;12.108;2023-02-11T02:50:32;2.30;99.90
37242;DHT22;23135;51.078;12.108;2023-02-11T02:53:20;2.40;99.90
37242;DHT22;23135;51.078;12.108;2023-02-11T03:01:49;2.50;99.90
37242;DHT22;23135;51.078;12.108;2023-02-11T03:09:54;2.60;99.90
37242;DHT22;23135;51.078;12.108;2023-02-11T03:12:21;2.60;99.90
37242;DHT22;23135;51.078;12.108;2023-02-11T03:14:50;2.60;99.90
37242;DHT22;23135;51.078;12.108;2023-02-11T03:17:16;2.60;99.90
37242;DHT22;23135;51.078;12.108;2023-02-11T03:19:45;2.60;99.90
37242;DHT22;23135;51.078;12.108;2023-02-11T03:22:36;2.60;99.90
37242;DHT22;23135;51.078;12.108;2023-02-11T03:25:03;2.70;99.90
37242;DHT22;23135;51.078;12.108;2023-02-11T03:27:42;2.70;99.90
37242;DHT22;23135;51.078;12.108;2023-02-11T03:30:25;2.70;99.90
37242;DHT22;23135;51.078;12.108;2023-02-11T03:32:56;2.70;99.90
37242;DHT22;23135;51.078;12.108;2023-02-11T03:35:50;2.80;99.90
37242;DHT22;23135;51.078;12.108;2023-02-11T03:38:27;2.80;99.90
37242;DHT22;23135;51.078;12.108;2023-02-11T03:40:54;2.80;99.90
37242;DHT22;23135;51.078;12.108;2023-02-11T03:43:27;2.80;99.90
37242;DHT22;23135;51.078;12.108;2023-02-11T03:45:55;2.80;99.90
37242;DHT22;23135;51.078;12.108;2023-02-11T03:50:53;2.90;99.90
37242;DHT22;23135;51.078;12.108;2023-02-11T03:53:21;2.90;99.90
37242;DHT22;23135;51.078;12.108;2023-02-11T03:55:49;2.90;99.90
37242;DHT22;23135;51.078;12.108;2023-02-11T03:58:15;2.90;99.90
37242;DHT22;23135;51.078;12.108;2023-02-11T04:00:42;2.90;99.90
37242;DHT22;23135;51.078;12.108;2023-02-11T04:03:09;3.00;99.90
37242;DHT22;23135;51.078;12.108;2023-02-11T04:05:35;3.00;99.90
37242;DHT22;23135;51.078;12.108;2023-02-11T04:08:01;2.90;99.90
37242;DHT22;23135;51.078;12.108;2023-02-11T04:10:26;2.90;99.90
37242;DHT22;23135;51.078;12.108;2023-02-11T04:12:52;3.00;99.90
37242;DHT22;23135;51.078;12.108;2023-02-11T04:15:17;3.00;99.90
37242;DHT22;23135;51.078;12.108;2023-02-11T04:17:43;3.10;99.90
37242;DHT22;23135;51.078;12.108;2023-02-11T04:20:10;3.00;99.90
37242;DHT22;23135;51.078;12.108;2023-02-11T04:22:36;3.00;99.90
37242;DHT22;23135;51.078;12.108;2023-02-11T04:25:02;3.00;99.90
37242;DHT22;23135;51.078;12.108;2023-02-11T04:27:28;3.10;99.90
37242;DHT22;23135;51.078;12.108;2023-02-11T04:29:53;3.10;99.90
37242;DHT22;23135;51.078;12.108;2023-02-11T04:32:19;3.10;99.90
37242;DHT22;23135;51.078;12.108;2023-02-11T04:34:44;3.10;99.90
37242;DHT22;23135;51.078;12.108;2023-02-11T04:37:10;3.10;99.90
37242;DHT22;23135;51.078;12.108;2023-02-11T04:39:36;3.20;99.90
37242;DHT22;23135;51.078;12.108;2023-02-11T04:42:01;3.20;99.90
37242;DHT22;23135;51.078;12.108;2023-02-11T04:44:27;3.20;99.90
37242;DHT22;23135;51.078;12.108;2023-02-11T04:46:53;3.20;99.90
37242;DHT22;23135;51.078;12.108;2023-02-11T04:49:18;3.30;99.90
37242;DHT22;23135;51.078;12.108;2023-02-11T04:51:44;3.30;99.90
37242;DHT22;23135;51.078;12.108;2023-02-11T04:54:10;3.30;99.90
37242;DHT22;23135;51.078;12.108;2023-02-11T04:56:36;3.40;99.90
37242;DHT22;23135;51.078;12.108;2023-02-11T04:59:03;3.40;99.90
37242;DHT22;23135;51.078;12.108;2023-02-11T05:01:28;3.30;99.90
37242;DHT22;23135;51.078;12.108;2023-02-11T05:03:54;3.30;99.90
37242;DHT22;23135;51.078;12.108;2023-02-11T05:06:19;3.40;99.90
37242;DHT22;23135;51.078;12.108;2023-02-11T05:08:45;3.40;99.90
37242;DHT22;23135;51.078;12.108;2023-02-11T05:11:17;3.40;99.90
37242;DHT22;23135;51.078;12.108;2023-02-11T05:13:42;3.40;99.90
37242;DHT22;23135;51.078;12.108;2023-02-11T05:16:09;3.50;99.90
37242;DHT22;23135;51.078;12.108;2023-02-11T05:18:39;3.40;99.90
37242;DHT22;23135;51.078;12.108;2023-02-11T05:21:10;3.40;99.90
37242;DHT22;23135;51.078;12.108;2023-02-11T05:23:36;3.50;99.90
37242;DHT22;23135;51.078;12.108;2023-02-11T05:26:03;3.50;99.90
37242;DHT22;23135;51.078;12.108;2023-02-11T05:28:29;3.40;99.90
37242;DHT22;23135;51.078;12.108;2023-02-11T05:30:55;3.50;99.90
37242;DHT22;23135;51.078;12.108;2023-02-11T05:33:21;3.50;99.90
37242;DHT22;23135;51.078;12.108;2023-02-11T05:35:46;3.50;99.90
37242;DHT22;23135;51.078;12.108;2023-02-11T05:38:12;3.50;99.90
37242;DHT22;23135;51.078;12.108;2023-02-11T05:40:38;3.50;99.90
37242;DHT22;23135;51.078;12.108;2023-02-11T05:43:04;3.40;99.90
37242;DHT22;23135;51.078;12.108;2023-02-11T05:45:29;3.40;99.90
37242;DHT22;23135;51.078;12.108;2023-02-11T05:47:56;3.40;99.90
37242;DHT22;23135;51.078;12.108;2023-02-11T05:50:22;3.30;99.90
37242;DHT22;23135;51.078;12.108;2023-02-11T05:52:47;3.30;99.90
37242;DHT22;23135;51.078;12.108;2023-02-11T05:55:13;3.30;99.90
37242;DHT22;23135;51.078;12.108;2023-02-11T05:57:39;3.30;99.90
37242;DHT22;23135;51.078;12.108;2023-02-11T06:00:05;3.30;99.90
37242;DHT22;23135;51.078;12.108;2023-02-11T06:02:31;3.30;99.90
37242;DHT22;23135;51.078;12.108;2023-02-11T06:04:56;3.40;99.90
37242;DHT22;23135;51.078;12.108;2023-02-11T06:07:22;3.40;99.90
37242;DHT22;23135;51.078;12.108;2023-02-11T06:09:47;3.40;99.90
37242;DHT22;23135;51.078;12.108;2023-02-11T06:12:13;3.40;99.90
37242;DHT22;23135;51.078;12.108;2023-02-11T06:14:39;3.30;99.90
37242;DHT22;23135;51.078;12.108;2023-02-11T06:17:04;3.30;99.90
37242;DHT22;23135;51.078;12.108;2023-02-11T06:19:30;3.40;99.90
37242;DHT22;23135;51.078;12.108;2023-02-11T06:21:56;3.40;99.90
37242;DHT22;23135;51.078;12.108;2023-02-11T06:24:21;3.40;99.90
37242;DHT22;23135;51.078;12.108;2023-02-11T06:26:47;3.40;99.90
37242;DHT22;23135;51.078;12.108;2023-02-11T06:29:13;3.40;99.90
37242;DHT22;23135;51.078;12.108;2023-02-11T06:31:38;3.40;99.90
37242;DHT22;23135;51.078;12.108;2023-02-11T06:34:04;3.30;99.90
37242;DHT22;23135;51.078;12.108;2023-02-11T06:36:30;3.40;99.90
37242;DHT22;23135;51.078;12.108;2023-02-11T06:38:55;3.40;99.90
37242;DHT22;23135;51.078;12.108;2023-02-11T06:41:21;3.40;99.90
37242;DHT22;23135;51.078;12.108;2023-02-11T06:43:47;3.50;99.90
37242;DHT22;23135;51.078;12.108;2023-02-11T06:46:13;3.50;99.90
37242;DHT22;23135;51.078;12.108;2023-02-11T06:48:39;3.60;99.90
37242;DHT22;23135;51.078;12.108;2023-02-11T06:51:07;3.60;99.90
37242;DHT22;23135;51.078;12.108;2023-02-11T06:53:35;3.60;99.90
37242;DHT22;23135;51.078;12.108;2023-02-11T06:56:06;3.70;99.90
37242;DHT22;23135;51.078;12.108;2023-02-11T06:58:32;3.70;99.90
37242;DHT22;23135;51.078;12.108;2023-02-11T07:00:58;3.70;99.90
37242;DHT22;23135;51.078;12.108;2023-02-11T07:03:24;3.80;99.90
37242;DHT22;23135;51.078;12.108;2023-02-11T07:05:49;3.80;99.90
37242;DHT22;23135;51.078;12.108;2023-02-11T07:08:15;3.80;99.90
37242;DHT22;23135;51.078;12.108;2023-02-11T07:10:40;3.80;99.90
37242;DHT22;23135;51.078;12.108;2023-02-11T07:13:06;4.00;99.90
37242;DHT22;23135;51.078;12.108;2023-02-11T07:15:32;4.10;99.90
37242;DHT22;23135;51.078;12.108;2023-02-11T07:17:57;4.10;99.90
37242;DHT22;23135;51.078;12.108;2023-02-11T07:20:24;4.20;99.90
37242;DHT22;23135;51.078;12.108;2023-02-11T07:22:50;4.20;99.90
37242;DHT22;23135;51.078;12.108;2023-02-11T07:25:15;4.20;99.90
37242;DHT22;23135;51.078;12.108;2023-02-11T07:27:41;4.20;99.90
37242;DHT22;23135;51.078;12.108;2023-02-11T07:30:07;4.10;99.90
37242;DHT22;23135;51.078;12.108;2023-02-11T07:32:33;4.10;99.90
37242;DHT22;23135;51.078;12.108;2023-02-11T07:34:59;4.10;99.90
37242;DHT22;23135;51.078;12.108;2023-02-11T07:37:24;4.10;99.90
37242;DHT22;23135;51.078;12.108;2023-02-11T07:39:50;4.10;99.90
37242;DHT22;23135;51.078;12.108;2023-02-11T07:42:15;4.10;99.90
37242;DHT22;23135;51.078;12.108;2023-02-11T07:44:41;4.10;99.90
37242;DHT22;23135;51.078;12.108;2023-02-11T07:47:06;4.10;99.90
37242;DHT22;23135;51.078;12.108;2023-02-11T07:49:32;4.10;99.90
37242;DHT22;23135;51.078;12.108;2023-02-11T07:51:58;4.10;99.90
37242;DHT22;23135;51.078;12.108;2023-02-11T07:54:23;4.10;99.90
37242;DHT22;23135;51.078;12.108;2023-02-11T07:56:49;4.10;99.90
37242;DHT22;23135;51.078;12.108;2023-02-11T07:59:14;4.10;99.90
37242;DHT22;23135;51.078;12.108;2023-02-11T08:01:40;4.20;99.90
37242;DHT22;23135;51.078;12.108;2023-02-11T08:04:05;4.20;99.90
37242;DHT22;23135;51.078;12.108;2023-02-11T08:06:33;4.20;99.90
37242;DHT22;23135;51.078;12.108;2023-02-11T08:09:04;4.30;99.90
37242;DHT22;23135;51.078;12.108;2023-02-11T08:11:30;4.30;99.90
37242;DHT22;23135;51.078;12.108;2023-02-11T08:13:56;4.30;99.90
37242;DHT22;23135;51.078;12.108;2023-02-11T08:18:49;4.30;99.90
37242;DHT22;23135;51.078;12.108;2023-02-11T08:21:16;4.30;99.90
37242;DHT22;23135;51.078;12.108;2023-02-11T08:23:42;4.30;99.90
37242;DHT22;23135;51.078;12.108;2023-02-11T08:26:17;4.30;99.90
37242;DHT22;23135;51.078;12.108;2023-02-11T08:28:44;4.40;99.90
37242;DHT22;23135;51.078;12.108;2023-02-11T08:31:16;4.40;99.90
37242;DHT22;23135;51.078;12.108;2023-02-11T08:33:42;4.40;99.90
37242;DHT22;23135;51.078;12.108;2023-02-11T08:36:09;4.50;99.90
37242;DHT22;23135;51.078;12.108;2023-02-11T08:38:35;4.50;99.90
37242;DHT22;23135;51.078;12.108;2023-02-11T08:41:01;4.50;99.90
37242;DHT22;23135;51.078;12.108;2023-02-11T08:43:27;4.60;99.90
37242;DHT22;23135;51.078;12.108;2023-02-11T08:45:52;4.60;99.90
37242;DHT22;23135;51.078;12.108;2023-02-11T08:48:18;4.60;99.90
37242;DHT22;23135;51.078;12.108;2023-02-11T08:50:43;4.60;99.90
37242;DHT22;23135;51.078;12.108;2023-02-11T08:53:09;4.60;99.90
37242;DHT22;23135;51.078;12.108;2023-02-11T08:55:35;4.60;99.90
37242;DHT22;23135;51.078;12.108;2023-02-11T08:58:00;4.60;99.90
37242;DHT22;23135;51.078;12.108;2023-02-11T09:00:28;4.60;99.90
37242;DHT22;23135;51.078;12.108;2023-02-11T09:02:54;4.70;99.90
37242;DHT22;23135;51.078;12.108;2023-02-11T09:05:19;4.70;99.90
37242;DHT22;23135;51.078;12.108;2023-02-11T09:07:46;4.80;99.90
37242;DHT22;23135;51.078;12.108;2023-02-11T09:10:12;4.80;99.90
37242;DHT22;23135;51.078;12.108;2023-02-11T09:12:37;4.70;99.90
37242;DHT22;23135;51.078;12.108;2023-02-11T09:15:03;4.70;99.90
37242;DHT22;23135;51.078;12.108;2023-02-11T09:17:29;4.70;99.90
37242;DHT22;23135;51.078;12.108;2023-02-11T09:19:54;4.70;99.90
37242;DHT22;23135;51.078;12.108;2023-02-11T09:22:20;4.80;99.90
37242;DHT22;23135;51.078;12.108;2023-02-11T09:24:45;4.80;99.90
37242;DHT22;23135;51.078;12.108;2023-02-11T09:27:11;4.90;99.90
37242;DHT22;23135;51.078;12.108;2023-02-11T09:29:36;5.00;99.90
37242;DHT22;23135;51.078;12.108;2023-02-11T09:32:02;5.00;99.90
37242;DHT22;23135;51.078;12.108;2023-02-11T09:34:28;5.00;99.90
37242;DHT22;23135;51.078;12.108;2023-02-11T09:36:53;5.00;99.90
37242;DHT22;23135;51.078;12.108;2023-02-11T09:39:19;5.10;99.90
37242;DHT22;23135;51.078;12.108;2023-02-11T09:42:03;5.10;99.90
37242;DHT22;23135;51.078;12.108;2023-02-11T09:44:32;5.10;99.90
37242;DHT22;23135;51.078;12.108;2023-02-11T09:47:02;5.20;99.90
37242;DHT22;23135;51.078;12.108;2023-02-11T09:49:49;5.10;99.90
37242;DHT22;23135;51.078;12.108;2023-02-11T09:54:56;5.30;99.90
37242;DHT22;23135;51.078;12.108;2023-02-11T09:57:32;5.50;99.90
37242;DHT22;23135;51.078;12.108;2023-02-11T10:00:00;5.70;99.90
37242;DHT22;23135;51.078;12.108;2023-02-11T10:05:33;5.90;99.90
37242;DHT22;23135;51.078;12.108;2023-02-11T10:11:20;5.80;99.90
37242;DHT22;23135;51.078;12.108;2023-02-11T10:17:03;6.00;99.90
37242;DHT22;23135;51.078;12.108;2023-02-11T10:22:32;6.20;99.90
37242;DHT22;23135;51.078;12.108;2023-02-11T10:24:59;6.30;99.90
37242;DHT22;23135;51.078;12.108;2023-02-11T10:27:32;6.30;99.90
37242;DHT22;23135;51.078;12.108;2023-02-11T10:30:04;6.20;99.90
37242;DHT22;23135;51.078;12.108;2023-02-11T10:32:40;6.30;99.90
37242;DHT22;23135;51.078;12.108;2023-02-11T10:35:14;6.30;99.90
37242;DHT22;23135;51.078;12.108;2023-02-11T10:37:42;6.30;99.90
37242;DHT22;23135;51.078;12.108;2023-02-11T10:40:20;6.50;99.90
37242;DHT22;23135;51.078;12.108;2023-02-11T10:42:48;6.70;99.90
37242;DHT22;23135;51.078;12.108;2023-02-11T10:45:36;6.90;99.90
37242;DHT22;23135;51.078;12.108;2023-02-11T10:48:03;7.00;99.90
37242;DHT22;23135;51.078;12.108;2023-02-11T10:50:31;7.00;99.90
37242;DHT22;23135;51.078;12.108;2023-02-11T10:53:19;7.10;99.90
37242;DHT22;23135;51.078;12.108;2023-02-11T10:55:53;7.00;99.90
37242;DHT22;23135;51.078;12.108;2023-02-11T10:58:24;7.00;99.90
37242;DHT22;23135;51.078;12.108;2023-02-11T11:00:52;7.00;99.90
37242;DHT22;23135;51.078;12.108;2023-02-11T11:03:22;6.90;99.90
37242;DHT22;23135;51.078;12.108;2023-02-11T11:06:03;6.80;99.90
37242;DHT22;23135;51.078;12.108;2023-02-11T11:08:47;6.80;99.90
37242;DHT22;23135;51.078;12.108;2023-02-11T11:11:18;6.80;99.90
37242;DHT22;23135;51.078;12.108;2023-02-11T11:16:32;6.80;99.90
37242;DHT22;23135;51.078;12.108;2023-02-11T11:24:15;7.00;99.90
37242;DHT22;23135;51.078;12.108;2023-02-11T11:26:44;7.10;99.90
37242;DHT22;23135;51.078;12.108;2023-02-11T11:29:21;7.10;99.90
37242;DHT22;23135;51.078;12.108;2023-02-11T11:32:00;7.10;99.90
37242;DHT22;23135;51.078;12.108;2023-02-11T11:34:34;7.10;99.90
37242;DHT22;23135;51.078;12.108;2023-02-11T11:37:11;7.10;99.90
37242;DHT22;23135;51.078;12.108;2023-02-11T11:39:38;7.00;99.90
37242;DHT22;23135;51.078;12.108;2023-02-11T11:42:27;7.00;99.90
37242;DHT22;23135;51.078;12.108;2023-02-11T11:45:01;7.00;99.90
37242;DHT22;23135;51.078;12.108;2023-02-11T11:50:55;7.00;99.90
37242;DHT22;23135;51.078;12.108;2023-02-11T11:58:31;6.90;99.90
37242;DHT22;23135;51.078;12.108;2023-02-11T12:15:22;6.90;99.90
37242;DHT22;23135;51.078;12.108;2023-02-11T12:18:18;6.90;99.90
37242;DHT22;23135;51.078;12.108;2023-02-11T12:23:20;6.90;99.90
37242;DHT22;23135;51.078;12.108;2023-02-11T12:26:06;6.90;99.90
37242;DHT22;23135;51.078;12.108;2023-02-11T12:29:01;6.90;99.90
37242;DHT22;23135;51.078;12.108;2023-02-11T12:34:38;6.90;99.90
37242;DHT22;23135;51.078;12.108;2023-02-11T12:37:26;7.00;99.90
37242;DHT22;23135;51.078;12.108;2023-02-11T12:40:20;7.00;99.90
37242;DHT22;23135;51.078;12.108;2023-02-11T12:56:20;7.00;99.90
37242;DHT22;23135;51.078;12.108;2023-02-11T12:58:49;7.00;99.90
37242;DHT22;23135;51.078;12.108;2023-02-11T13:01:29;7.00;99.90
37242;DHT22;23135;51.078;12.108;2023-02-11T13:06:37;7.00;99.90
37242;DHT22;23135;51.078;12.108;2023-02-11T13:09:10;7.00;99.90
37242;DHT22;23135;51.078;12.108;2023-02-11T13:11:44;7.00;99.90
37242;DHT22;23135;51.078;12.108;2023-02-11T13:14:35;7.00;99.90
37242;DHT22;23135;51.078;12.108;2023-02-11T13:17:13;7.00;99.90
37242;DHT22;23135;51.078;12.108;2023-02-11T13:19:50;7.00;99.90
37242;DHT22;23135;51.078;12.108;2023-02-11T13:22:35;7.00;99.90
37242;DHT22;23135;51.078;12.108;2023-02-11T13:27:54;6.90;99.90
37242;DHT22;23135;51.078;12.108;2023-02-11T13:30:34;6.90;99.90
37242;DHT22;23135;51.078;12.108;2023-02-11T13:33:03;6.90;99.90
37242;DHT22;23135;51.078;12.108;2023-02-11T13:35:33;6.90;99.90
37242;DHT22;23135;51.078;12.108;2023-02-11T13:40:40;6.90;99.90
37242;DHT22;23135;51.078;12.108;2023-02-11T13:43:19;6.90;99.90
37242;DHT22;23135;51.078;12.108;2023-02-11T13:45:47;6.90;99.90
37242;DHT22;23135;51.078;12.108;2023-02-11T13:48:23;6.90;99.90
37242;DHT22;23135;51.078;12.108;2023-02-11T13:50:53;6.90;99.90
37242;DHT22;23135;51.078;12.108;2023-02-11T13:53:20;6.90;99.90
37242;DHT22;23135;51.078;12.108;2023-02-11T13:55:48;6.90;99.90
37242;DHT22;23135;51.078;12.108;2023-02-11T14:14:19;6.90;99.90
37242;DHT22;23135;51.078;12.108;2023-02-11T14:19:41;6.90;99.90
37242;DHT22;23135;51.078;12.108;2023-02-11T14:22:16;6.90;99.90
37242;DHT22;23135;51.078;12.108;2023-02-11T14:24:58;6.80;99.90
37242;DHT22;23135;51.078;12.108;2023-02-11T14:27:54;6.80;99.90
37242;DHT22;23135;51.078;12.108;2023-02-11T14:30:36;6.80;99.90
37242;DHT22;23135;51.078;12.108;2023-02-11T14:33:22;6.80;99.90
37242;DHT22;23135;51.078;12.108;2023-02-11T14:36:08;6.80;99.90
37242;DHT22;23135;51.078;12.108;2023-02-11T14:38:51;6.80;99.90
37242;DHT22;23135;51.078;12.108;2023-02-11T14:41:26;6.80;99.90
37242;DHT22;23135;51.078;12.108;2023-02-11T14:43:59;6.80;99.90
37242;DHT22;23135;51.078;12.108;2023-02-11T14:46:27;6.80;99.90
37242;DHT22;23135;51.078;12.108;2023-02-11T14:48:57;6.80;99.90
37242;DHT22;23135;51.078;12.108;2023-02-11T14:51:30;6.80;99.90
37242;DHT22;23135;51.078;12.108;2023-02-11T14:54:11;6.80;99.90
37242;DHT22;23135;51.078;12.108;2023-02-11T14:56:37;6.80;99.90
37242;DHT22;23135;51.078;12.108;2023-02-11T14:59:02;6.80;99.90
37242;DHT22;23135;51.078;12.108;2023-02-11T15:01:39;6.80;99.90
37242;DHT22;23135;51.078;12.108;2023-02-11T15:04:22;6.80;99.90
37242;DHT22;23135;51.078;12.108;2023-02-11T15:06:47;6.80;99.90
37242;DHT22;23135;51.078;12.108;2023-02-11T15:09:22;6.80;99.90
37242;DHT22;23135;51.078;12.108;2023-02-11T15:11:51;6.70;99.90
37242;DHT22;23135;51.078;12.108;2023-02-11T15:14:31;6.80;99.90
37242;DHT22;23135;51.078;12.108;2023-02-11T15:17:03;6.70;99.90
37242;DHT22;23135;51.078;12.108;2023-02-11T15:21:58;6.70;99.90
37242;DHT22;23135;51.078;12.108;2023-02-11T15:24:27;6.70;99.90
37242;DHT22;23135;51.078;12.108;2023-02-11T15:27:00;6.70;99.90
37242;DHT22;23135;51.078;12.108;2023-02-11T15:29:42;6.70;99.90
37242;DHT22;23135;51.078;12.108;2023-02-11T15:32:15;6.70;99.90
37242;DHT22;23135;51.078;12.108;2023-02-11T15:34:44;6.70;99.90
37242;DHT22;23135;51.078;12.108;2023-02-11T15:37:29;6.70;99.90
37242;DHT22;23135;51.078;12.108;2023-02-11T15:40:11;6.70;99.90
37242;DHT22;23135;51.078;12.108;2023-02-11T15:42:36;6.70;99.90
37242;DHT22;23135;51.078;12.108;2023-02-11T15:47:52;6.60;99.90
37242;DHT22;23135;51.078;12.108;2023-02-11T15:50:30;6.60;99.90
37242;DHT22;23135;51.078;12.108;2023-02-11T15:53:17;6.60;99.90
37242;DHT22;23135;51.078;12.108;2023-02-11T15:55:44;6.50;99.90
37242;DHT22;23135;51.078;12.108;2023-02-11T15:58:10;6.50;99.90
37242;DHT22;23135;51.078;12.108;2023-02-11T16:00:47;6.50;99.90
37242;DHT22;23135;51.078;12.108;2023-02-11T16:03:27;6.40;99.90
37242;DHT22;23135;51.078;12.108;2023-02-11T16:08:40;6.40;99.90
37242;DHT22;23135;51.078;12.108;2023-02-11T16:11:23;6.30;99.90
37242;DHT22;23135;51.078;12.108;2023-02-11T16:13:49;6.30;99.90
37242;DHT22;23135;51.078;12.108;2023-02-11T16:16:21;6.30;99.90
37242;DHT22;23135;51.078;12.108;2023-02-11T16:18:54;6.20;99.90
37242;DHT22;23135;51.078;12.108;2023-02-11T16:21:33;6.30;99.90
37242;DHT22;23135;51.078;12.108;2023-02-11T16:24:15;6.20;99.90
37242;DHT22;23135;51.078;12.108;2023-02-11T16:26:47;6.20;99.90
37242;DHT22;23135;51.078;12.108;2023-02-11T16:29:25;6.20;99.90
37242;DHT22;23135;51.078;12.108;2023-02-11T16:31:52;6.20;99.90
37242;DHT22;23135;51.078;12.108;2023-02-11T16:34:23;6.10;99.90
37242;DHT22;23135;51.078;12.108;2023-02-11T16:36:50;6.10;99.90
37242;DHT22;23135;51.078;12.108;2023-02-11T16:39:17;6.10;99.90
37242;DHT22;23135;51.078;12.108;2023-02-11T16:41:43;6.10;99.90
37242;DHT22;23135;51.078;12.108;2023-02-11T16:44:08;6.10;99.90
37242;DHT22;23135;51.078;12.108;2023-02-11T16:46:35;6.00;99.90
37242;DHT22;23135;51.078;12.108;2023-02-11T16:49:22;6.00;99.90
37242;DHT22;23135;51.078;12.108;2023-02-11T16:51:50;6.00;99.90
37242;DHT22;23135;51.078;12.108;2023-02-11T16:54:18;6.00;99.90
37242;DHT22;23135;51.078;12.108;2023-02-11T16:56:44;6.00;99.90
37242;DHT22;23135;51.078;12.108;2023-02-11T16:59:10;6.00;99.90
37242;DHT22;23135;51.078;12.108;2023-02-11T17:01:38;6.00;99.90
37242;DHT22;23135;51.078;12.108;2023-02-11T17:04:05;6.00;99.90
37242;DHT22;23135;51.078;12.108;2023-02-11T17:06:32;6.00;99.90
37242;DHT22;23135;51.078;12.108;2023-02-11T17:08:58;6.00;99.90
37242;DHT22;23135;51.078;12.108;2023-02-11T17:11:24;6.00;99.90
37242;DHT22;23135;51.078;12.108;2023-02-11T17:13:50;6.00;99.90
37242;DHT22;23135;51.078;12.108;2023-02-11T17:16:20;6.00;99.90
37242;DHT22;23135;51.078;12.108;2023-02-11T17:18:47;6.00;99.90
37242;DHT22;23135;51.078;12.108;2023-02-11T17:21:13;6.00;99.90
37242;DHT22;23135;51.078;12.108;2023-02-11T17:23:39;6.00;99.90
37242;DHT22;23135;51.078;12.108;2023-02-11T17:26:05;6.00;99.90
37242;DHT22;23135;51.078;12.108;2023-02-11T17:28:31;6.00;99.90
37242;DHT22;23135;51.078;12.108;2023-02-11T17:30:58;6.00;99.90
37242;DHT22;23135;51.078;12.108;2023-02-11T17:33:24;6.00;99.90
37242;DHT22;23135;51.078;12.108;2023-02-11T17:35:49;6.00;99.90
37242;DHT22;23135;51.078;12.108;2023-02-11T17:38:15;6.00;99.90
37242;DHT22;23135;51.078;12.108;2023-02-11T17:40:41;6.00;99.90
37242;DHT22;23135;51.078;12.108;2023-02-11T17:43:06;6.00;99.90
37242;DHT22;23135;51.078;12.108;2023-02-11T17:45:32;6.00;99.90
37242;DHT22;23135;51.078;12.108;2023-02-11T17:47:57;6.00;99.90
37242;DHT22;23135;51.078;12.108;2023-02-11T17:50:23;6.00;99.90
37242;DHT22;23135;51.078;12.108;2023-02-11T17:52:48;6.00;99.90
37242;DHT22;23135;51.078;12.108;2023-02-11T17:55:14;6.00;99.90
37242;DHT22;23135;51.078;12.108;2023-02-11T17:57:40;6.10;99.90
37242;DHT22;23135;51.078;12.108;2023-02-11T18:00:06;6.00;99.90
37242;DHT22;23135;51.078;12.108;2023-02-11T18:02:32;6.00;99.90